OMFJ/FJR METAR and TAF weather

Enter ICAO airport designator
Station Type Date Time Source
OMFJ METAR 2019/02/18 04:00 UTC NOAA

OMFJ 180400Z 29020KT 9999 FEW018 19/11 Q1013 RMK A2993


Station Type Date Time Source
OMFJ Decoded METAR 2019/02/18 04:00 UTC NOAA

Fujairah, United Arab Emirates (OMFJ) 25-06N 056-20E 28M
Feb 17, 2019 - 11:00 PM EST / 2019.02.18 0400 UTC
Wind: from the WNW (290 degrees) at 23 MPH (20 KT):0
Visibility: greater than 7 mile(s):0
Sky conditions: mostly clear
Temperature: 66 F (19 C)
Dew Point: 51 F (11 C)
Relative Humidity: 59%
Pressure (altimeter): 29.91 in. Hg (1013 hPa)
ob: OMFJ 180400Z 29020KT 9999 FEW018 19/11 Q1013 RMK A2993
cycle: 4

Station Type Date Time Source
OMFJ TAF 2019/02/17 18:03 UTC NOAA

TAF TAF OMFJ 171700Z 1718/1824 30012KT 7000 FEW025 PROB30 1718/1800 5000 -RA SCT025 PROB40 1800/1812 28020G35KT 4000 BLDU NSC


Example: see airport list